Time;durP1;ratioP1;P1;durP2;ratioP2;P2;SDS_P1;SDS_P2;PMS_P1;PMS_P2;Temp;Humidity;BMP_temperature;BMP_pressure;BME280_temperature;BME280_humidity;BME280_pressure;Samples;Min_cycle;Max_cycle;Signal;HPM_P1;HPM_P2
2023/03/03 00:02:02;;;;;;;26.85;9.35;;;3.00;99.90;;;;;;4953152;28;19922;-71
2023/03/03 00:04:28;;;;;;;26.05;9.95;;;3.00;99.90;;;;;;4952939;28;20098;-71
2023/03/03 00:06:53;;;;;;;24.60;9.32;;;2.90;99.90;;;;;;4952726;28;20047;-74
2023/03/03 00:09:19;;;;;;;26.10;9.75;;;2.90;99.90;;;;;;4952530;28;20051;-70
2023/03/03 00:11:49;;;;;;;25.23;10.30;;;2.90;99.90;;;;;;4952902;28;20547;-71
2023/03/03 00:14:32;;;;;;;29.08;10.15;;;2.90;99.90;;;;;;4952006;29;20054;-72
2023/03/03 00:17:00;;;;;;;25.60;9.10;;;3.00;99.90;;;;;;4953041;29;20054;-71
2023/03/03 00:19:26;;;;;;;23.77;8.07;;;2.90;99.90;;;;;;4953063;28;20453;-71
2023/03/03 00:21:56;;;;;;;19.80;7.82;;;2.90;99.90;;;;;;4952616;28;20134;-70
2023/03/03 00:24:36;;;;;;;27.08;8.45;;;3.40;99.90;;;;;;4952177;28;20047;-71
2023/03/03 00:27:26;;;;;;;22.25;8.52;;;2.80;99.90;;;;;;4952528;28;20523;-71
2023/03/03 00:29:56;;;;;;;27.65;9.20;;;2.80;99.90;;;;;;4952570;28;20094;-70
2023/03/03 00:32:24;;;;;;;19.90;7.63;;;2.90;99.90;;;;;;4952993;28;20130;-71
2023/03/03 00:34:52;;;;;;;19.75;7.72;;;2.90;99.90;;;;;;4952449;28;20513;-71
2023/03/03 00:37:34;;;;;;;20.95;7.63;;;2.80;99.90;;;;;;4952544;28;20047;-72
2023/03/03 00:40:24;;;;;;;19.50;7.40;;;2.80;99.90;;;;;;4952238;28;20131;-71
2023/03/03 00:42:59;;;;;;;21.80;7.90;;;2.70;99.90;;;;;;4954244;28;20070;-70
2023/03/03 00:45:37;;;;;;;22.23;7.80;;;3.30;99.90;;;;;;4953814;28;20055;-70
2023/03/03 00:48:20;;;;;;;21.65;8.25;;;3.10;99.90;;;;;;4955799;28;20062;-71
2023/03/03 00:50:47;;;;;;;23.40;8.05;;;2.70;99.90;;;;;;4956293;28;20051;-70
2023/03/03 00:53:18;;;;;;;22.20;7.53;;;3.10;99.90;;;;;;4955817;28;20482;-73
2023/03/03 00:55:45;;;;;;;19.77;7.32;;;2.70;99.90;;;;;;4955948;28;20058;-71
2023/03/03 00:58:11;;;;;;;19.98;8.07;;;2.70;99.90;;;;;;4956392;28;20047;-70
2023/03/03 01:00:38;;;;;;;;;;;3.40;99.90;;;;;;4956618;28;20178;-70
2023/03/03 01:03:09;;;;;;;28.73;9.18;;;2.70;99.90;;;;;;4955739;28;19987;-71
2023/03/03 01:05:35;;;;;;;22.58;8.68;;;2.60;99.90;;;;;;4955398;28;20050;-70
2023/03/03 01:08:02;;;;;;;21.70;8.40;;;2.60;99.90;;;;;;4955437;28;20135;-70
2023/03/03 01:10:29;;;;;;;;;;;2.60;99.90;;;;;;4955738;28;20632;-70
2023/03/03 01:12:56;;;;;;;18.35;7.78;;;2.60;99.90;;;;;;4938769;29;19977;-72
2023/03/03 01:15:22;;;;;;;24.90;8.27;;;2.60;99.90;;;;;;4956073;28;20139;-71
2023/03/03 01:17:48;;;;;;;;;;;2.60;99.90;;;;;;4955949;28;20480;-70
2023/03/03 01:20:15;;;;;;;23.00;8.43;;;2.60;99.90;;;;;;4955631;28;19923;-70
2023/03/03 01:22:41;;;;;;;19.42;8.30;;;2.50;99.90;;;;;;4955459;28;20130;-70
2023/03/03 01:25:07;;;;;;;20.55;8.35;;;2.60;99.90;;;;;;4955669;29;20043;-70
2023/03/03 01:27:34;;;;;;;26.10;8.40;;;2.50;99.90;;;;;;4955285;28;20054;-70
2023/03/03 01:30:01;;;;;;;24.50;8.70;;;2.50;99.90;;;;;;4955365;28;20094;-70
2023/03/03 01:32:27;;;;;;;24.95;9.07;;;2.50;99.90;;;;;;4955486;28;20069;-71
2023/03/03 01:34:53;;;;;;;24.35;9.02;;;2.50;99.90;;;;;;4955124;28;20135;-70
2023/03/03 01:37:19;;;;;;;29.90;8.75;;;2.50;99.90;;;;;;4955276;28;20039;-71
2023/03/03 01:39:52;;;;;;;24.75;9.30;;;2.50;99.90;;;;;;4955344;28;20047;-70
2023/03/03 01:42:19;;;;;;;23.75;8.55;;;2.40;99.90;;;;;;4955906;28;20079;-70
2023/03/03 01:44:45;;;;;;;24.52;9.27;;;2.70;99.90;;;;;;4955562;28;20055;-70
2023/03/03 01:47:19;;;;;;;;;;;2.80;99.90;;;;;;4955525;28;20043;-71
2023/03/03 01:50:11;;;;;;;24.90;8.45;;;2.30;99.90;;;;;;4955366;28;20269;-70
2023/03/03 01:52:43;;;;;;;21.83;8.02;;;2.30;99.90;;;;;;4955059;28;20043;-70
2023/03/03 01:55:19;;;;;;;22.42;8.38;;;2.30;99.90;;;;;;4954275;28;20051;-71
2023/03/03 01:57:51;;;;;;;25.20;9.00;;;2.30;99.90;;;;;;4955061;28;20050;-70
2023/03/03 02:00:17;;;;;;;23.65;8.60;;;2.30;99.90;;;;;;4955366;28;20440;-71
2023/03/03 02:02:44;;;;;;;22.50;9.18;;;2.30;99.90;;;;;;4955134;28;20051;-70
2023/03/03 02:05:11;;;;;;;25.15;8.25;;;2.30;99.90;;;;;;4954887;28;20772;-71
2023/03/03 02:07:37;;;;;;;23.83;8.07;;;2.30;99.90;;;;;;4954928;28;20071;-71
2023/03/03 02:10:18;;;;;;;20.75;8.00;;;2.30;99.90;;;;;;4954461;28;20503;-70
2023/03/03 02:12:54;;;;;;;25.15;8.35;;;2.30;99.90;;;;;;4955211;28;20517;-71
2023/03/03 02:15:31;;;;;;;18.42;6.97;;;2.40;99.90;;;;;;4955117;28;20057;-71
2023/03/03 02:18:02;;;;;;;24.25;8.48;;;2.30;99.90;;;;;;4954595;28;20043;-70
2023/03/03 02:20:34;;;;;;;23.48;8.23;;;2.40;99.90;;;;;;4955222;28;20452;-72
2023/03/03 02:23:28;;;;;;;22.17;7.57;;;2.30;99.90;;;;;;4954163;28;20167;-70
2023/03/03 02:25:57;;;;;;;22.70;8.52;;;2.30;99.90;;;;;;4955353;28;20077;-74
2023/03/03 02:28:29;;;;;;;25.73;8.20;;;2.40;99.90;;;;;;4954766;28;20047;-70
2023/03/03 02:30:56;;;;;;;22.67;8.30;;;2.40;99.90;;;;;;4954010;28;20101;-75
2023/03/03 02:33:23;;;;;;;23.63;8.07;;;2.80;99.90;;;;;;4954102;28;20074;-71
2023/03/03 02:35:49;;;;;;;24.08;8.27;;;2.40;99.90;;;;;;4954406;28;20102;-71
2023/03/03 02:38:26;;;;;;;25.95;8.48;;;2.40;99.90;;;;;;4952997;28;20050;-74
2023/03/03 02:41:10;;;;;;;26.60;9.77;;;2.30;99.90;;;;;;4954449;28;20047;-71
2023/03/03 02:43:41;;;;;;;27.05;8.55;;;2.30;99.90;;;;;;4954337;28;20054;-71
2023/03/03 02:46:07;;;;;;;29.08;8.55;;;2.40;99.90;;;;;;4953851;28;20441;-70
2023/03/03 02:48:33;;;;;;;24.08;8.27;;;2.40;99.90;;;;;;4953981;28;20162;-71
2023/03/03 02:50:58;;;;;;;25.63;8.25;;;2.40;99.90;;;;;;4952807;28;20079;-72
2023/03/03 02:53:24;;;;;;;60.00;8.25;;;2.30;99.90;;;;;;4953018;28;20062;-71
2023/03/03 02:55:50;;;;;;;23.42;7.22;;;2.30;99.90;;;;;;4954361;28;20147;-70
2023/03/03 02:58:15;;;;;;;19.83;7.47;;;2.30;99.90;;;;;;4954028;28;20210;-70
2023/03/03 03:00:41;;;;;;;25.83;7.45;;;2.30;99.90;;;;;;4953486;29;20051;-70
2023/03/03 03:03:07;;;;;;;25.33;7.55;;;2.30;99.90;;;;;;4954012;28;20130;-70
2023/03/03 03:05:32;;;;;;;27.73;6.25;;;2.30;99.90;;;;;;4953240;29;20484;-71
2023/03/03 03:07:58;;;;;;;21.30;6.20;;;2.30;99.90;;;;;;4951626;28;20413;-72
2023/03/03 03:10:24;;;;;;;20.80;6.72;;;2.30;99.90;;;;;;4952865;29;20126;-71
2023/03/03 03:12:49;;;;;;;27.83;7.32;;;2.30;99.90;;;;;;4953882;28;20055;-71
2023/03/03 03:15:15;;;;;;;23.17;6.78;;;2.20;99.90;;;;;;4953496;28;20051;-70
2023/03/03 03:17:41;;;;;;;20.65;6.43;;;2.20;99.90;;;;;;4953032;29;20461;-71
2023/03/03 03:20:07;;;;;;;17.27;5.38;;;2.20;99.90;;;;;;4953556;28;20043;-71
2023/03/03 03:22:33;;;;;;;17.95;5.78;;;2.20;99.90;;;;;;4953344;28;20604;-71
2023/03/03 03:24:59;;;;;;;42.05;6.03;;;2.50;99.90;;;;;;4953320;28;20102;-74
2023/03/03 03:27:24;;;;;;;21.38;6.03;;;2.20;99.90;;;;;;4952611;28;20055;-71
2023/03/03 03:29:50;;;;;;;67.07;6.30;;;2.20;99.90;;;;;;4953965;28;20062;-70
2023/03/03 03:32:16;;;;;;;20.75;6.53;;;2.20;99.90;;;;;;4952396;29;20046;-70
2023/03/03 03:34:42;;;;;;;26.33;5.90;;;2.20;99.90;;;;;;4953751;28;20057;-71
2023/03/03 03:37:08;;;;;;;34.05;6.57;;;2.10;99.90;;;;;;4953037;28;20050;-73
2023/03/03 03:39:35;;;;;;;16.05;5.53;;;2.30;99.90;;;;;;4953114;28;20050;-71
2023/03/03 03:42:00;;;;;;;23.88;6.15;;;2.20;99.90;;;;;;4953211;28;20051;-74
2023/03/03 03:44:26;;;;;;;18.13;5.15;;;2.20;99.90;;;;;;4953661;28;20500;-71
2023/03/03 03:46:52;;;;;;;17.83;5.10;;;2.20;99.90;;;;;;4953376;28;20141;-70
2023/03/03 03:49:18;;;;;;;19.33;4.45;;;2.20;99.90;;;;;;4952494;28;20437;-71
2023/03/03 03:51:43;;;;;;;26.55;5.55;;;2.20;99.90;;;;;;4953742;28;20043;-70
2023/03/03 03:54:09;;;;;;;31.27;6.43;;;2.30;99.90;;;;;;4952129;28;20055;-71
2023/03/03 03:56:35;;;;;;;33.15;6.13;;;2.20;99.90;;;;;;4952581;29;20054;-71
2023/03/03 03:59:01;;;;;;;26.08;5.80;;;2.20;99.90;;;;;;4952803;28;20055;-74
2023/03/03 04:01:27;;;;;;;17.88;5.50;;;2.20;99.90;;;;;;4953554;28;20043;-71
2023/03/03 04:03:52;;;;;;;17.85;5.68;;;2.30;99.90;;;;;;4953041;28;20047;-71
2023/03/03 04:06:18;;;;;;;26.80;5.18;;;2.20;99.90;;;;;;4953116;28;20374;-72
2023/03/03 04:08:44;;;;;;;21.02;5.10;;;2.20;99.90;;;;;;4952575;28;20078;-70
2023/03/03 04:11:09;;;;;;;23.02;5.47;;;2.20;99.90;;;;;;4953129;28;20108;-70
2023/03/03 04:13:35;;;;;;;21.80;5.78;;;2.20;99.90;;;;;;4953483;28;20043;-70
2023/03/03 04:16:04;;;;;;;24.75;5.85;;;2.70;99.90;;;;;;4953404;28;20105;-71
2023/03/03 04:18:30;;;;;;;15.50;4.28;;;2.20;99.90;;;;;;4952066;29;20510;-71
2023/03/03 04:20:55;;;;;;;36.03;6.13;;;2.30;99.90;;;;;;4954625;28;20078;-71
2023/03/03 04:23:21;;;;;;;16.05;5.28;;;2.20;99.90;;;;;;4956052;28;20190;-70
2023/03/03 04:25:48;;;;;;;34.10;5.85;;;2.10;99.90;;;;;;4955934;29;20054;-70
2023/03/03 04:28:16;;;;;;;46.70;5.82;;;2.20;99.90;;;;;;4956726;28;20105;-71
2023/03/03 04:30:42;;;;;;;33.20;7.05;;;2.20;99.90;;;;;;4957014;28;20044;-70
2023/03/03 04:33:09;;;;;;;23.42;6.55;;;2.60;99.90;;;;;;4956492;28;20074;-71
2023/03/03 04:35:34;;;;;;;28.08;6.75;;;2.20;99.90;;;;;;4957097;28;20392;-71
2023/03/03 04:38:00;;;;;;;40.55;7.00;;;2.20;99.90;;;;;;4956471;28;20039;-71
2023/03/03 04:40:26;;;;;;;31.83;5.15;;;2.20;99.90;;;;;;4954942;29;20051;-70
2023/03/03 04:42:52;;;;;;;;;;;2.30;99.90;;;;;;4957399;28;20065;-71
2023/03/03 04:45:18;;;;;;;18.52;4.60;;;2.40;99.90;;;;;;4955600;28;19922;-70
2023/03/03 04:47:44;;;;;;;35.17;6.07;;;2.40;99.90;;;;;;4956404;28;20102;-70
2023/03/03 04:50:10;;;;;;;29.17;6.65;;;2.30;99.90;;;;;;4955907;28;20063;-70
2023/03/03 04:52:36;;;;;;;26.13;5.80;;;2.30;99.90;;;;;;4956120;28;20047;-70
2023/03/03 04:55:03;;;;;;;33.42;6.40;;;2.30;99.90;;;;;;4955502;28;20117;-71
2023/03/03 04:57:29;;;;;;;60.15;6.78;;;2.30;99.90;;;;;;4955791;28;20110;-70
2023/03/03 04:59:55;;;;;;;25.13;5.50;;;2.30;99.90;;;;;;4956279;28;20047;-71
2023/03/03 05:02:21;;;;;;;38.05;6.45;;;2.30;99.90;;;;;;4954489;29;20051;-70
2023/03/03 05:04:46;;;;;;;20.52;5.43;;;2.40;99.90;;;;;;4956198;28;20469;-71
2023/03/03 05:07:12;;;;;;;56.00;7.85;;;2.70;99.90;;;;;;4955748;28;20054;-71
2023/03/03 05:09:38;;;;;;;45.65;7.75;;;2.40;99.90;;;;;;4955713;28;20039;-71
2023/03/03 05:12:04;;;;;;;46.50;6.45;;;2.40;99.90;;;;;;4956530;28;20089;-71
2023/03/03 05:14:30;;;;;;;;;;;2.40;99.90;;;;;;4956500;28;20080;-70
2023/03/03 05:16:56;;;;;;;35.70;6.95;;;2.50;99.90;;;;;;4956265;28;19978;-71
2023/03/03 05:19:23;;;;;;;53.20;8.02;;;2.90;99.90;;;;;;4955806;28;20043;-70
2023/03/03 05:21:48;;;;;;;25.58;5.75;;;2.40;99.90;;;;;;4956159;28;20149;-71
2023/03/03 05:24:14;;;;;;;32.65;6.85;;;2.40;99.90;;;;;;4953767;29;20047;-71
2023/03/03 05:26:41;;;;;;;29.92;7.70;;;2.40;99.90;;;;;;4955830;28;20428;-71
2023/03/03 05:29:07;;;;;;;48.38;8.00;;;2.50;99.90;;;;;;4956168;28;20043;-71
2023/03/03 05:31:33;;;;;;;86.72;8.63;;;2.50;99.90;;;;;;4955175;28;20043;-71
2023/03/03 05:33:59;;;;;;;49.25;8.20;;;2.50;99.90;;;;;;4955537;28;20047;-71
2023/03/03 05:36:25;;;;;;;25.25;7.38;;;2.50;99.90;;;;;;4938821;29;20485;-70
2023/03/03 05:38:51;;;;;;;32.50;7.28;;;2.80;99.90;;;;;;4955100;28;20047;-71
2023/03/03 05:41:16;;;;;;;41.08;7.18;;;2.60;99.90;;;;;;4955604;28;20055;-71
2023/03/03 05:43:42;;;;;;;22.50;6.10;;;2.50;99.90;;;;;;4955582;28;20094;-71
2023/03/03 05:46:09;;;;;;;26.60;6.40;;;2.50;99.90;;;;;;4954490;29;20055;-71
2023/03/03 05:48:34;;;;;;;42.85;6.35;;;3.30;99.90;;;;;;4954877;28;20595;-71
2023/03/03 05:51:00;;;;;;;50.03;8.27;;;2.50;99.90;;;;;;4955714;28;20051;-70
2023/03/03 05:53:27;;;;;;;34.22;7.40;;;2.50;99.90;;;;;;4954269;28;20055;-70
2023/03/03 05:55:53;;;;;;;23.08;6.53;;;2.50;99.90;;;;;;4955779;28;20051;-71
2023/03/03 05:58:18;;;;;;;23.58;6.00;;;2.50;99.90;;;;;;4955312;28;20488;-72
2023/03/03 06:00:44;;;;;;;22.08;6.95;;;2.50;99.90;;;;;;4955508;28;20047;-72
2023/03/03 06:03:10;;;;;;;20.13;5.65;;;2.50;99.90;;;;;;4955088;28;20509;-72
2023/03/03 06:05:35;;;;;;;21.10;5.57;;;2.60;99.90;;;;;;4955031;28;20054;-70
2023/03/03 06:08:01;;;;;;;16.63;5.93;;;2.60;99.90;;;;;;4954625;28;20050;-72
2023/03/03 06:10:27;;;;;;;22.25;6.28;;;2.60;99.90;;;;;;4954278;28;20047;-71
2023/03/03 06:12:53;;;;;;;26.67;6.25;;;2.60;99.90;;;;;;4954127;29;20518;-71
2023/03/03 06:15:20;;;;;;;28.05;6.55;;;2.80;99.90;;;;;;4954849;28;20078;-71
2023/03/03 06:17:46;;;;;;;20.42;6.75;;;2.60;99.90;;;;;;4955053;28;20054;-71
2023/03/03 06:20:11;;;;;;;15.32;5.50;;;2.60;99.90;;;;;;4954955;28;20055;-70
2023/03/03 06:22:37;;;;;;;24.20;6.72;;;2.60;99.90;;;;;;4954433;28;20047;-71
2023/03/03 06:25:03;;;;;;;17.73;7.00;;;2.50;99.90;;;;;;4954759;28;20485;-71
2023/03/03 06:27:29;;;;;;;17.40;5.95;;;2.50;99.90;;;;;;4954238;28;20512;-71
2023/03/03 06:29:54;;;;;;;28.55;7.40;;;2.50;99.90;;;;;;4954936;28;20055;-71
2023/03/03 06:32:20;;;;;;;23.13;6.28;;;2.60;99.90;;;;;;4937577;29;20058;-71
2023/03/03 06:34:46;;;;;;;17.15;6.07;;;2.60;99.90;;;;;;4954843;28;20049;-71
2023/03/03 06:37:12;;;;;;;25.70;6.90;;;2.50;99.90;;;;;;4954340;28;20536;-72
2023/03/03 06:39:38;;;;;;;18.05;5.60;;;2.50;99.90;;;;;;4953984;28;20535;-71
2023/03/03 06:42:03;;;;;;;18.05;6.15;;;2.50;99.90;;;;;;4954920;28;20039;-71
2023/03/03 06:44:29;;;;;;;15.57;5.93;;;2.60;99.90;;;;;;4953547;28;20477;-71
2023/03/03 06:46:56;;;;;;;17.38;5.43;;;2.60;99.90;;;;;;4954080;28;20452;-71
2023/03/03 06:49:22;;;;;;;18.30;6.20;;;2.60;99.90;;;;;;4954051;28;20057;-71
2023/03/03 06:51:49;;;;;;;20.02;5.70;;;2.60;99.90;;;;;;4954620;28;20047;-74
2023/03/03 06:54:20;;;;;;;18.88;5.88;;;2.60;99.90;;;;;;4953701;28;20063;-70
2023/03/03 06:56:48;;;;;;;17.60;5.13;;;2.70;99.90;;;;;;4954549;28;20113;-72
2023/03/03 06:59:16;;;;;;;16.73;6.22;;;2.70;99.90;;;;;;4954078;28;20047;-71
2023/03/03 07:01:46;;;;;;;15.55;5.95;;;2.70;99.90;;;;;;4954255;28;20051;-71
2023/03/03 07:04:32;;;;;;;15.93;5.57;;;2.70;99.90;;;;;;4954164;28;20050;-70
2023/03/03 07:07:09;;;;;;;17.50;5.27;;;2.80;99.90;;;;;;4954355;28;20087;-71
2023/03/03 07:09:35;;;;;;;15.45;5.20;;;2.80;99.90;;;;;;4953061;28;20051;-71
2023/03/03 07:12:10;;;;;;;16.35;6.45;;;3.20;99.90;;;;;;4954349;28;20105;-71
2023/03/03 07:14:43;;;;;;;15.40;5.25;;;2.80;99.90;;;;;;4953991;28;20051;-70
2023/03/03 07:17:29;;;;;;;16.90;5.63;;;2.80;99.90;;;;;;4969093;28;20130;-72
2023/03/03 07:19:54;;;;;;;16.30;5.15;;;3.60;99.90;;;;;;4954143;28;20051;-72
2023/03/03 07:22:26;;;;;;;15.35;5.15;;;2.90;99.90;;;;;;4953424;28;20374;-75
2023/03/03 07:24:56;;;;;;;13.07;5.50;;;2.90;99.90;;;;;;4953672;28;20487;-74
2023/03/03 07:27:27;;;;;;;17.38;5.55;;;3.10;99.90;;;;;;4953580;28;20110;-70
2023/03/03 07:30:20;;;;;;;17.98;5.47;;;3.30;99.90;;;;;;4953719;28;20142;-71
2023/03/03 07:32:46;;;;;;;16.15;5.45;;;3.00;99.90;;;;;;4952182;29;20110;-81
2023/03/03 07:35:37;;;;;;;15.25;5.50;;;3.50;99.90;;;;;;4952991;29;20564;-83
2023/03/03 07:38:15;;;;;;;15.25;5.68;;;3.10;99.90;;;;;;4952524;29;20051;-83
2023/03/03 07:40:51;;;;;;;13.35;4.78;;;3.10;99.90;;;;;;4952135;29;20622;-84
2023/03/03 07:43:42;;;;;;;13.20;5.03;;;3.20;99.90;;;;;;4953069;29;20058;-82
2023/03/03 07:46:43;;;;;;;16.35;5.07;;;3.20;99.90;;;;;;4952707;29;20047;-83
2023/03/03 07:49:29;;;;;;;19.08;5.75;;;3.30;99.90;;;;;;4952742;29;20375;-79
2023/03/03 07:51:56;;;;;;;16.73;5.47;;;3.30;99.90;;;;;;4952640;29;20078;-82
2023/03/03 07:54:36;;;;;;;12.75;5.38;;;3.30;99.90;;;;;;4951236;28;20059;-73
2023/03/03 07:57:42;;;;;;;18.42;5.60;;;3.40;99.90;;;;;;4953618;28;20051;-68
2023/03/03 08:00:28;;;;;;;16.27;5.85;;;4.00;99.90;;;;;;4952999;28;20082;-67
2023/03/03 08:03:04;;;;;;;15.77;6.25;;;3.60;99.90;;;;;;4953493;28;20056;-67
2023/03/03 08:05:34;;;;;;;17.98;5.50;;;3.50;99.90;;;;;;4953179;28;20047;-70
2023/03/03 08:08:28;;;;;;;18.27;5.38;;;3.60;99.90;;;;;;4952983;28;20043;-84
2023/03/03 08:10:55;;;;;;;17.92;5.82;;;3.70;99.90;;;;;;4951882;29;20134;-80
2023/03/03 08:13:28;;;;;;;16.02;5.47;;;3.70;99.90;;;;;;4952649;29;20051;-80
2023/03/03 08:16:20;;;;;;;20.08;5.38;;;3.80;99.90;;;;;;4953621;28;20492;-87
2023/03/03 08:18:52;;;;;;;15.82;5.80;;;3.90;99.90;;;;;;4951973;29;20055;-80
2023/03/03 08:21:25;;;;;;;16.92;6.00;;;4.00;99.90;;;;;;4952524;29;20062;-84
2023/03/03 08:23:52;;;;;;;15.68;5.90;;;4.00;99.90;;;;;;4951591;29;20063;-81
2023/03/03 08:26:19;;;;;;;22.05;6.88;;;4.10;99.90;;;;;;4953351;28;20548;-79
2023/03/03 08:28:46;;;;;;;14.13;5.78;;;4.10;99.90;;;;;;4952063;29;20199;-79
2023/03/03 08:31:12;;;;;;;17.15;6.18;;;4.20;99.90;;;;;;4952307;29;20059;-80
2023/03/03 08:33:38;;;;;;;20.73;6.07;;;4.20;99.90;;;;;;4950829;29;20073;-80
2023/03/03 08:36:05;;;;;;;16.83;6.13;;;4.30;99.90;;;;;;4952797;28;20051;-81
2023/03/03 08:38:31;;;;;;;16.38;5.40;;;4.30;99.90;;;;;;4951379;28;20051;-81
2023/03/03 08:40:57;;;;;;;17.63;5.47;;;4.40;99.90;;;;;;4952513;28;20055;-81
2023/03/03 08:43:23;;;;;;;15.50;5.60;;;4.40;99.90;;;;;;4952105;28;20055;-81
2023/03/03 08:45:51;;;;;;;21.63;6.55;;;4.50;99.90;;;;;;4951188;28;20051;-81
2023/03/03 08:48:18;;;;;;;15.80;5.32;;;4.70;99.90;;;;;;4952357;28;20098;-82
2023/03/03 08:50:44;;;;;;;17.25;5.47;;;4.60;99.90;;;;;;4952403;28;20111;-82
2023/03/03 08:53:12;;;;;;;17.10;5.68;;;4.80;99.90;;;;;;4952115;28;20055;-82
2023/03/03 08:55:38;;;;;;;16.95;5.63;;;4.60;99.90;;;;;;4950824;29;20134;-82
2023/03/03 08:58:05;;;;;;;16.08;5.35;;;4.60;99.90;;;;;;4952307;28;20122;-82
2023/03/03 09:00:31;;;;;;;12.75;4.45;;;4.60;99.90;;;;;;4952166;28;20467;-82
2023/03/03 09:02:56;;;;;;;13.57;5.20;;;4.70;99.90;;;;;;4952221;28;20093;-82
2023/03/03 09:05:23;;;;;;;15.75;5.35;;;4.70;99.90;;;;;;4951570;28;20123;-82
2023/03/03 09:07:52;;;;;;;16.88;5.88;;;4.70;99.90;;;;;;4952763;29;20636;-82
2023/03/03 09:10:26;;;;;;;12.75;5.18;;;4.90;99.90;;;;;;4954166;29;20448;-82
2023/03/03 09:12:55;;;;;;;11.48;4.70;;;4.70;99.90;;;;;;4954637;29;20127;-82
2023/03/03 09:15:32;;;;;;;13.00;4.40;;;4.90;99.90;;;;;;4956143;28;20167;-82
2023/03/03 09:18:21;;;;;;;12.18;4.97;;;4.70;99.90;;;;;;4955446;28;20050;-81
2023/03/03 09:20:56;;;;;;;13.85;5.00;;;4.90;99.90;;;;;;4955168;28;20393;-83
2023/03/03 09:23:34;;;;;;;14.50;5.50;;;4.80;99.90;;;;;;4955175;28;20047;-82
2023/03/03 09:26:19;;;;;;;15.18;5.63;;;4.80;99.90;;;;;;4956166;28;20516;-85
2023/03/03 09:28:45;;;;;;;17.80;5.38;;;4.80;99.90;;;;;;4955521;28;20074;-82
2023/03/03 09:31:26;;;;;;;15.13;5.35;;;4.80;99.90;;;;;;4955745;28;20523;-81
2023/03/03 09:33:56;;;;;;;13.60;4.53;;;4.90;99.90;;;;;;4954187;29;20051;-82
2023/03/03 09:36:26;;;;;;;14.65;4.63;;;5.30;99.90;;;;;;4954458;29;20039;-78
2023/03/03 09:38:54;;;;;;;14.38;4.35;;;4.90;99.90;;;;;;4955004;28;20133;-79
2023/03/03 09:41:45;;;;;;;14.35;4.95;;;5.00;99.90;;;;;;4955059;29;20043;-76
2023/03/03 09:44:30;;;;;;;15.43;4.85;;;5.00;99.90;;;;;;4938890;29;20055;-77
2023/03/03 09:47:32;;;;;;;11.10;4.30;;;5.10;99.90;;;;;;4955066;28;20043;-75
2023/03/03 09:50:20;;;;;;;10.77;4.53;;;5.30;99.90;;;;;;4960063;28;20142;-79
2023/03/03 09:53:03;;;;;;;12.85;4.40;;;5.50;99.90;;;;;;4953701;29;20508;-79
2023/03/03 09:55:55;;;;;;;14.20;5.05;;;5.70;99.90;;;;;;4954521;28;20066;-80
2023/03/03 09:58:47;;;;;;;16.27;5.30;;;5.80;99.90;;;;;;4955545;28;20102;-78
2023/03/03 10:01:41;;;;;;;15.10;4.50;;;6.00;99.90;;;;;;4953798;28;20059;-82
2023/03/03 10:04:24;;;;;;;12.88;4.85;;;6.20;99.90;;;;;;4954995;28;20093;-81
2023/03/03 10:07:31;;;;;;;13.13;5.03;;;6.30;99.90;;;;;;4954880;28;20051;-76
2023/03/03 10:10:24;;;;;;;12.43;3.78;;;6.40;99.90;;;;;;4954810;28;20050;-75
2023/03/03 10:13:14;;;;;;;12.13;3.78;;;6.50;99.90;;;;;;4955084;28;20051;-76
2023/03/03 10:16:04;;;;;;;10.93;3.25;;;6.80;99.90;;;;;;4954593;28;20507;-76
2023/03/03 10:18:49;;;;;;;8.45;3.17;;;7.00;99.90;;;;;;4954450;28;20098;-76
2023/03/03 10:21:37;;;;;;;13.10;3.25;;;7.10;99.90;;;;;;4954517;28;20564;-76
2023/03/03 10:24:18;;;;;;;11.52;4.05;;;7.10;99.90;;;;;;4953612;28;20127;-76
2023/03/03 10:27:02;;;;;;;12.68;4.03;;;7.10;99.90;;;;;;4953843;28;20043;-75
2023/03/03 10:29:58;;;;;;;13.18;3.80;;;7.10;99.90;;;;;;4953386;28;20047;-76
2023/03/03 10:32:52;;;;;;;8.07;3.50;;;7.00;99.90;;;;;;4954254;28;20047;-75
2023/03/03 10:35:37;;;;;;;9.45;3.50;;;7.00;99.90;;;;;;4954752;28;20101;-74
2023/03/03 10:38:38;;;;;;;8.25;3.50;;;6.90;99.90;;;;;;4954097;28;20143;-74
2023/03/03 10:41:15;;;;;;;8.55;3.53;;;6.90;99.90;;;;;;4954955;28;20054;-81
2023/03/03 10:44:24;;;;;;;9.02;3.22;;;6.90;99.90;;;;;;4954403;28;20047;-83
2023/03/03 10:47:08;;;;;;;9.60;3.78;;;6.90;99.90;;;;;;4952896;29;20055;-83
2023/03/03 10:50:08;;;;;;;12.55;3.78;;;6.80;99.90;;;;;;4953608;29;20130;-82
2023/03/03 10:52:48;;;;;;;11.20;3.60;;;6.70;99.90;;;;;;4954167;28;20386;-82
2023/03/03 10:55:25;;;;;;;7.50;3.33;;;6.70;99.90;;;;;;4952648;28;20110;-83
2023/03/03 10:57:57;;;;;;;10.98;3.60;;;6.70;99.90;;;;;;4954100;28;20059;-83
2023/03/03 11:00:46;;;;;;;8.63;3.33;;;6.70;99.90;;;;;;4954383;28;20138;-82
2023/03/03 11:03:27;;;;;;;10.52;3.00;;;6.70;99.90;;;;;;4952968;29;20126;-82
2023/03/03 11:06:11;;;;;;;9.73;3.58;;;6.70;99.90;;;;;;4952993;29;20421;-82
2023/03/03 11:08:52;;;;;;;8.18;3.58;;;6.70;99.90;;;;;;4951894;29;20051;-82
2023/03/03 11:11:30;;;;;;;10.77;4.07;;;6.70;99.90;;;;;;4954357;28;20062;-82
2023/03/03 11:14:17;;;;;;;8.10;3.33;;;6.70;99.90;;;;;;4953941;28;20505;-82
2023/03/03 11:16:50;;;;;;;9.63;3.13;;;6.70;99.90;;;;;;4952837;29;20055;-82
2023/03/03 11:19:48;;;;;;;8.75;3.30;;;6.70;99.90;;;;;;4953062;28;20393;-82
2023/03/03 11:22:43;;;;;;;10.32;3.53;;;6.70;99.90;;;;;;4951638;29;20382;-82
2023/03/03 11:25:28;;;;;;;8.98;3.75;;;6.70;99.90;;;;;;4951665;29;20523;-84
2023/03/03 11:28:06;;;;;;;9.98;3.78;;;6.70;99.90;;;;;;4952340;28;20043;-82
2023/03/03 11:30:49;;;;;;;11.40;3.65;;;6.80;99.90;;;;;;4951917;28;20409;-82
2023/03/03 11:33:18;;;;;;;7.72;4.18;;;6.80;99.90;;;;;;4953042;28;20403;-82
2023/03/03 11:35:52;;;;;;;9.20;3.58;;;6.80;99.90;;;;;;4952262;28;20130;-80
2023/03/03 11:38:48;;;;;;;7.25;2.88;;;6.90;99.90;;;;;;4952662;28;20237;-82
2023/03/03 11:41:29;;;;;;;7.75;2.95;;;6.90;99.90;;;;;;4952633;29;20134;-83
2023/03/03 11:44:27;;;;;;;7.47;3.17;;;6.90;99.90;;;;;;4952948;28;20116;-82
2023/03/03 11:47:13;;;;;;;;;;;7.00;99.90;;;;;;4953237;28;20048;-82
2023/03/03 11:49:41;;;;;;;8.95;3.47;;;7.00;99.90;;;;;;4953263;28;20010;-82
2023/03/03 11:52:15;;;;;;;7.80;3.25;;;7.00;99.90;;;;;;4951254;29;20552;-81
2023/03/03 11:55:03;;;;;;;9.98;3.28;;;7.00;99.90;;;;;;4935440;29;20405;-81
2023/03/03 11:57:49;;;;;;;8.68;2.70;;;7.00;99.90;;;;;;4953142;28;20127;-82
2023/03/03 12:00:34;;;;;;;12.47;3.90;;;7.10;99.90;;;;;;4953211;28;20514;-83
2023/03/03 12:03:15;;;;;;;12.77;3.78;;;7.10;99.90;;;;;;4952754;28;20047;-82
2023/03/03 12:05:51;;;;;;;8.02;3.47;;;7.20;99.90;;;;;;4952078;29;20058;-82
2023/03/03 12:08:40;;;;;;;10.32;3.90;;;7.20;99.90;;;;;;4952710;28;20521;-82
2023/03/03 12:11:29;;;;;;;9.25;2.75;;;7.20;99.90;;;;;;4952078;29;20047;-82
2023/03/03 12:14:15;;;;;;;6.60;2.85;;;7.20;99.90;;;;;;4951499;29;20186;-82
2023/03/03 12:17:05;;;;;;;7.80;3.22;;;7.30;99.90;;;;;;4953377;28;20457;-82
2023/03/03 12:19:43;;;;;;;8.98;3.50;;;7.30;99.90;;;;;;4952914;28;20054;-80
2023/03/03 12:23:01;;;;;;;10.07;3.83;;;7.30;99.90;;;;;;4952905;28;20110;-81
2023/03/03 12:25:38;;;;;;;11.18;3.42;;;7.40;99.90;;;;;;4937277;29;20063;-79
2023/03/03 12:28:37;;;;;;;8.40;3.38;;;7.40;99.90;;;;;;4952925;28;20046;-79
2023/03/03 12:31:15;;;;;;;11.32;3.40;;;7.50;99.90;;;;;;4952465;28;20047;-81
2023/03/03 12:33:57;;;;;;;7.75;2.45;;;7.50;99.90;;;;;;4952774;28;20051;-79
2023/03/03 12:36:53;;;;;;;4.28;1.95;;;7.60;99.90;;;;;;4953460;28;20123;-78
2023/03/03 12:39:46;;;;;;;7.25;2.97;;;7.60;99.90;;;;;;4951903;28;20619;-80
2023/03/03 12:42:29;;;;;;;5.43;2.28;;;7.70;99.90;;;;;;4954575;28;20664;-80
2023/03/03 12:45:04;;;;;;;6.15;2.20;;;7.80;99.90;;;;;;4955637;29;20079;-81
2023/03/03 12:47:49;;;;;;;5.57;2.22;;;7.90;99.90;;;;;;4939215;29;20058;-79
2023/03/03 12:50:23;;;;;;;6.60;2.88;;;8.00;99.90;;;;;;4955412;29;20051;-79
2023/03/03 12:53:04;;;;;;;3.25;1.30;;;8.00;99.90;;;;;;4955264;29;20549;-79
2023/03/03 12:55:51;;;;;;;2.50;1.10;;;8.20;99.90;;;;;;4954946;29;20404;-79
2023/03/03 12:58:29;;;;;;;;;;;8.40;99.90;;;;;;4956641;28;20489;-79
2023/03/03 13:01:05;;;;;;;;;;;8.60;99.90;;;;;;4955526;28;19922;-80
2023/03/03 13:03:44;;;;;;;4.35;1.70;;;8.70;99.90;;;;;;4955097;29;20373;-80
2023/03/03 13:06:45;;;;;;;2.38;1.30;;;9.00;99.90;;;;;;4955960;28;20051;-80
2023/03/03 13:09:52;;;;;;;3.50;1.15;;;9.30;99.90;;;;;;4953897;29;20059;-80
2023/03/03 13:12:32;;;;;;;1.85;0.70;;;9.30;99.90;;;;;;4955129;29;20054;-80
2023/03/03 13:15:20;;;;;;;2.63;1.00;;;10.00;99.90;;;;;;4956017;28;20642;-80
2023/03/03 13:18:04;;;;;;;0.93;0.60;;;11.00;99.90;;;;;;4954842;29;20263;-80
2023/03/03 13:20:38;;;;;;;6.63;0.70;;;11.30;99.90;;;;;;4955292;29;20043;-79
2023/03/03 13:23:08;;;;;;;4.68;0.90;;;11.20;99.90;;;;;;4954437;29;20062;-80
2023/03/03 13:25:37;;;;;;;2.72;1.20;;;10.90;99.90;;;;;;4955896;28;20043;-80